Time;durP1;ratioP1;P1;durP2;ratioP2;P2;SDS_P1;SDS_P2;PMS_P1;PMS_P2;Temp;Humidity;BMP_temperature;BMP_pressure;BME280_temperature;BME280_humidity;BME280_pressure;Samples;Min_cycle;Max_cycle;Signal;HPM_P1;HPM_P2
2023/01/03 00:01:11;;;;;;;2.97;2.78;;;;;;;;;;5050732;28;20417;-82
2023/01/03 00:03:37;;;;;;;2.72;2.53;;;;;;;;;;5051281;28;20456;-82
2023/01/03 00:06:03;;;;;;;2.70;2.50;;;;;;;;;;5051477;28;20488;-82
2023/01/03 00:08:29;;;;;;;2.80;2.50;;;;;;;;;;5033660;28;20417;-83
2023/01/03 00:10:55;;;;;;;2.95;2.65;;;;;;;;;;5033615;28;20883;-82
2023/01/03 00:13:21;;;;;;;2.97;2.53;;;;;;;;;;5051399;28;20388;-82
2023/01/03 00:15:47;;;;;;;3.03;2.80;;;;;;;;;;5051499;28;20420;-82
2023/01/03 00:18:12;;;;;;;3.38;3.08;;;;;;;;;;5051411;28;20396;-82
2023/01/03 00:20:38;;;;;;;2.72;2.53;;;;;;;;;;5051433;28;20413;-82
2023/01/03 00:23:04;;;;;;;3.35;2.70;;;;;;;;;;5051474;28;20826;-83
2023/01/03 00:25:30;;;;;;;2.95;2.63;;;;;;;;;;5052013;28;20390;-82
2023/01/03 00:27:56;;;;;;;2.60;2.40;;;;;;;;;;5037481;28;20507;-82
2023/01/03 00:30:22;;;;;;;2.47;2.30;;;;;;;;;;5055326;28;20384;-83
2023/01/03 00:32:48;;;;;;;2.45;2.10;;;;;;;;;;5055446;28;20376;-82
2023/01/03 00:35:14;;;;;;;2.80;2.20;;;;;;;;;;5055296;28;20743;-82
2023/01/03 00:37:40;;;;;;;2.58;2.35;;;;;;;;;;5055315;28;20412;-83
2023/01/03 00:40:07;;;;;;;2.97;1.80;;;;;;;;;;5055183;28;20937;-82
2023/01/03 00:43:27;;;;;;;2.30;1.77;;;;;;;;;;5055204;28;20389;-83
2023/01/03 00:45:18;;;;;;;2.05;1.88;;;;;;;;;;5051907;28;20389;-83
2023/01/03 00:47:44;;;;;;;2.65;1.60;;;;;;;;;;5038242;28;20417;-81
2023/01/03 00:50:10;;;;;;;2.00;1.80;;;;;;;;;;5033953;28;20725;-82
2023/01/03 00:52:36;;;;;;;2.20;1.63;;;;;;;;;;5020187;28;20641;-82
2023/01/03 00:55:02;;;;;;;2.35;1.60;;;;;;;;;;5055063;28;20469;-82
2023/01/03 00:57:28;;;;;;;1.83;1.55;;;;;;;;;;5052906;28;20790;-84
2023/01/03 00:59:54;;;;;;;1.73;1.63;;;;;;;;;;5038887;28;20415;-83
2023/01/03 01:02:20;;;;;;;2.15;1.90;;;;;;;;;;5039232;28;20822;-83
2023/01/03 01:04:46;;;;;;;2.08;1.88;;;;;;;;;;5040613;28;20435;-83
2023/01/03 01:07:12;;;;;;;1.58;1.48;;;;;;;;;;5038318;28;20430;-84
2023/01/03 01:09:38;;;;;;;2.00;1.77;;;;;;;;;;5044135;28;20782;-82
2023/01/03 01:12:05;;;;;;;1.60;1.50;;;;;;;;;;5034799;28;20387;-82
2023/01/03 01:14:32;;;;;;;1.55;1.45;;;;;;;;;;5035642;28;20394;-82
2023/01/03 01:17:02;;;;;;;1.95;1.70;;;;;;;;;;5052965;28;20720;-82
2023/01/03 01:19:30;;;;;;;2.47;1.70;;;;;;;;;;5034657;28;20394;-83
2023/01/03 01:21:56;;;;;;;2.08;1.88;;;;;;;;;;5052675;28;20427;-83
2023/01/03 01:24:22;;;;;;;2.05;1.90;;;;;;;;;;5052742;28;20386;-82
2023/01/03 01:26:48;;;;;;;2.50;1.90;;;;;;;;;;5053000;28;20448;-82
2023/01/03 01:29:15;;;;;;;2.20;2.00;;;;;;;;;;5053069;28;20385;-82
2023/01/03 01:31:41;;;;;;;1.80;1.70;;;;;;;;;;5053278;28;20400;-82
2023/01/03 01:34:08;;;;;;;1.80;1.70;;;;;;;;;;5051396;28;20377;-83
2023/01/03 01:36:36;;;;;;;2.50;1.73;;;;;;;;;;5054184;28;20431;-82
2023/01/03 01:39:04;;;;;;;1.98;1.85;;;;;;;;;;5054123;28;20380;-83
2023/01/03 01:44:38;;;;;;;1.63;1.52;;;;;;;;;;5054432;28;20373;-82
2023/01/03 01:47:04;;;;;;;1.50;1.40;;;;;;;;;;5052142;28;20452;-82
2023/01/03 01:49:30;;;;;;;1.63;1.50;;;;;;;;;;5053913;28;20413;-82
2023/01/03 01:51:56;;;;;;;1.90;1.55;;;;;;;;;;5054019;28;20393;-83
2023/01/03 01:54:23;;;;;;;1.80;1.70;;;;;;;;;;5052280;28;20425;-82
2023/01/03 01:56:51;;;;;;;1.70;1.50;;;;;;;;;;5043729;28;20382;-82
2023/01/03 01:59:17;;;;;;;1.70;1.60;;;;;;;;;;5052442;28;20381;-82
2023/01/03 02:01:44;;;;;;;2.10;1.80;;;;;;;;;;5051047;28;20439;-82
2023/01/03 02:04:14;;;;;;;2.20;2.00;;;;;;;;;;5052631;28;20377;-82
2023/01/03 02:06:41;;;;;;;2.78;2.58;;;;;;;;;;5052526;28;20377;-82
2023/01/03 02:09:07;;;;;;;5.05;3.50;;;;;;;;;;5052502;28;20388;-83
2023/01/03 02:11:39;;;;;;;3.13;2.85;;;;;;;;;;5034900;28;20476;-82
2023/01/03 02:14:05;;;;;;;3.60;3.30;;;;;;;;;;5044347;28;20409;-83
2023/01/03 02:16:51;;;;;;;3.13;2.83;;;;;;;;;;5052384;28;20417;-82
2023/01/03 02:19:29;;;;;;;4.30;3.78;;;;;;;;;;5051877;28;20389;-83
2023/01/03 02:22:04;;;;;;;4.37;3.80;;;;;;;;;;5052309;28;20380;-82
2023/01/03 02:24:42;;;;;;;4.35;3.95;;;;;;;;;;5052190;28;20460;-83
2023/01/03 02:27:24;;;;;;;5.97;4.88;;;;;;;;;;5052083;28;20409;-82
2023/01/03 02:30:01;;;;;;;5.25;4.40;;;;;;;;;;5052150;28;20387;-83
2023/01/03 02:32:45;;;;;;;4.78;3.80;;;;;;;;;;5052115;28;20373;-82
2023/01/03 02:35:29;;;;;;;4.15;3.28;;;;;;;;;;5048666;28;20463;-83
2023/01/03 02:37:59;;;;;;;5.38;4.10;;;;;;;;;;5039366;28;20440;-82
2023/01/03 02:40:30;;;;;;;6.35;5.10;;;;;;;;;;5049968;28;20871;-83
2023/01/03 02:43:05;;;;;;;5.32;4.72;;;;;;;;;;5032284;28;20389;-82
2023/01/03 02:45:52;;;;;;;4.55;3.80;;;;;;;;;;5051868;28;20385;-82
2023/01/03 02:48:36;;;;;;;3.83;3.40;;;;;;;;;;5051262;28;20413;-83
2023/01/03 02:51:05;;;;;;;3.50;3.03;;;;;;;;;;5051752;28;20378;-82
2023/01/03 02:53:34;;;;;;;3.10;2.67;;;;;;;;;;5051890;28;20386;-83
2023/01/03 02:56:04;;;;;;;6.13;5.53;;;;;;;;;;5051692;28;20388;-82
2023/01/03 02:58:33;;;;;;;3.05;2.80;;;;;;;;;;5051725;28;20381;-83
2023/01/03 03:01:00;;;;;;;2.00;1.83;;;;;;;;;;4978800;28;2035209;-83
2023/01/03 03:03:28;;;;;;;3.08;2.05;;;;;;;;;;5049328;28;20397;-82
2023/01/03 03:06:02;;;;;;;2.08;1.88;;;;;;;;;;5051735;28;20381;-83
2023/01/03 03:08:28;;;;;;;1.90;1.80;;;;;;;;;;5052112;28;20401;-83
2023/01/03 03:13:48;;;;;;;2.67;2.47;;;;;;;;;;5052355;28;20369;-82
2023/01/03 03:16:14;;;;;;;2.85;2.42;;;;;;;;;;5052276;28;20378;-83
2023/01/03 03:18:57;;;;;;;2.70;2.50;;;;;;;;;;5052272;28;20889;-83
2023/01/03 03:26:59;;;;;;;2.22;2.03;;;;;;;;;;5052246;28;20440;-82
2023/01/03 03:29:25;;;;;;;2.42;1.88;;;;;;;;;;5048598;28;20444;-82
2023/01/03 03:31:51;;;;;;;1.77;1.67;;;;;;;;;;5052013;28;20381;-83
2023/01/03 03:34:25;;;;;;;1.70;1.60;;;;;;;;;;5052043;28;20413;-82
2023/01/03 03:36:51;;;;;;;2.55;1.70;;;;;;;;;;5051958;28;20373;-82
2023/01/03 03:45:26;;;;;;;2.10;1.90;;;;;;;;;;5052184;28;20424;-83
2023/01/03 03:47:58;;;;;;;2.95;2.13;;;;;;;;;;5001809;28;20409;-82
2023/01/03 03:50:34;;;;;;;3.00;1.90;;;;;;;;;;5051691;28;20405;-83
2023/01/03 03:53:04;;;;;;;2.00;1.80;;;;;;;;;;5049937;28;20367;-83
2023/01/03 03:55:33;;;;;;;2.17;1.93;;;;;;;;;;5044661;28;20384;-82
2023/01/03 03:58:01;;;;;;;2.10;2.00;;;;;;;;;;5051640;28;20381;-83
2023/01/03 04:00:29;;;;;;;2.70;2.05;;;;;;;;;;5049124;28;20438;-83
2023/01/03 04:02:56;;;;;;;2.20;1.95;;;;;;;;;;5051124;28;20389;-83
2023/01/03 04:05:24;;;;;;;2.00;1.80;;;;;;;;;;5051022;28;20388;-83
2023/01/03 04:07:50;;;;;;;2.10;1.98;;;;;;;;;;5033462;28;20410;-82
2023/01/03 04:10:19;;;;;;;2.83;2.50;;;;;;;;;;5051073;28;20452;-83
2023/01/03 04:12:48;;;;;;;2.83;2.58;;;;;;;;;;5051426;28;20382;-82
2023/01/03 04:15:14;;;;;;;2.30;2.00;;;;;;;;;;5051430;28;20433;-83
2023/01/03 04:17:40;;;;;;;1.88;1.75;;;;;;;;;;5051545;28;20381;-83
2023/01/03 04:20:07;;;;;;;2.05;1.85;;;;;;;;;;5051381;28;21063;-83
2023/01/03 04:22:33;;;;;;;2.35;2.15;;;;;;;;;;5051373;28;20389;-83
2023/01/03 04:24:59;;;;;;;2.38;2.17;;;;;;;;;;5051329;28;20772;-82
2023/01/03 04:27:25;;;;;;;2.53;2.33;;;;;;;;;;5051560;28;20463;-83
2023/01/03 04:29:51;;;;;;;2.73;2.50;;;;;;;;;;5051384;28;20937;-82
2023/01/03 04:32:16;;;;;;;3.47;3.17;;;;;;;;;;5051216;28;20428;-83
2023/01/03 04:34:42;;;;;;;3.63;3.33;;;;;;;;;;5051401;28;20388;-82
2023/01/03 04:37:08;;;;;;;4.10;3.70;;;;;;;;;;5051241;28;20381;-82
2023/01/03 04:39:34;;;;;;;5.00;4.50;;;;;;;;;;5051065;28;20847;-83
2023/01/03 04:44:00;;;;;;;4.95;4.47;;;;;;;;;;5051247;28;20382;-82
2023/01/03 04:44:46;;;;;;;3.92;3.63;;;;;;;;;;5050981;28;20727;-83
2023/01/03 04:47:12;;;;;;;4.28;3.95;;;;;;;;;;5050952;28;20404;-83
2023/01/03 04:49:38;;;;;;;4.10;3.80;;;;;;;;;;5033290;28;20387;-83
2023/01/03 04:52:04;;;;;;;3.25;2.90;;;;;;;;;;5051042;28;20732;-83
2023/01/03 04:54:30;;;;;;;3.60;2.70;;;;;;;;;;5033285;28;20398;-82
2023/01/03 04:56:56;;;;;;;3.50;3.20;;;;;;;;;;5030888;28;21084;-82
2023/01/03 04:59:22;;;;;;;3.15;2.85;;;;;;;;;;5047812;28;20396;-83
2023/01/03 05:01:50;;;;;;;3.17;2.97;;;;;;;;;;5033175;28;20504;-82
2023/01/03 05:04:17;;;;;;;2.55;2.35;;;;;;;;;;5049981;28;20886;-82
2023/01/03 05:06:43;;;;;;;2.92;2.72;;;;;;;;;;5050648;28;20513;-82
2023/01/03 05:09:09;;;;;;;3.10;2.70;;;;;;;;;;5050464;28;20385;-83
2023/01/03 05:11:35;;;;;;;4.07;2.65;;;;;;;;;;5051311;28;20393;-82
2023/01/03 05:14:01;;;;;;;2.60;2.40;;;;;;;;;;5054262;28;20409;-83
2023/01/03 05:16:27;;;;;;;2.83;2.63;;;;;;;;;;5054027;28;20855;-82
2023/01/03 05:18:53;;;;;;;3.38;3.03;;;;;;;;;;5054536;28;20377;-83
2023/01/03 05:26:50;;;;;;;2.70;2.50;;;;;;;;;;5054262;28;20368;-83
2023/01/03 05:29:18;;;;;;;2.95;2.40;;;;;;;;;;5054394;28;20819;-83
2023/01/03 05:31:44;;;;;;;2.40;2.20;;;;;;;;;;5050702;28;20385;-83
2023/01/03 05:34:10;;;;;;;3.22;2.75;;;;;;;;;;5054161;28;20805;-83
2023/01/03 05:36:36;;;;;;;2.95;2.70;;;;;;;;;;5052592;28;20430;-82
2023/01/03 05:39:02;;;;;;;2.97;2.78;;;;;;;;;;5053985;28;20461;-82
2023/01/03 05:44:13;;;;;;;3.30;3.08;;;;;;;;;;5052945;28;20878;-83
2023/01/03 05:46:39;;;;;;;3.10;2.90;;;;;;;;;;5052988;28;20381;-83
2023/01/03 05:49:05;;;;;;;3.80;3.50;;;;;;;;;;5053000;28;20374;-83
2023/01/03 05:51:31;;;;;;;4.18;3.88;;;;;;;;;;5034702;28;20401;-83
2023/01/03 05:53:57;;;;;;;4.20;3.90;;;;;;;;;;5050347;28;20378;-82
2023/01/03 05:56:23;;;;;;;4.40;4.10;;;;;;;;;;5053031;28;20394;-83
2023/01/03 05:58:49;;;;;;;4.65;4.25;;;;;;;;;;5052611;28;21083;-82
2023/01/03 06:01:15;;;;;;;5.28;4.88;;;;;;;;;;5052598;28;20413;-82
2023/01/03 06:03:45;;;;;;;5.15;4.75;;;;;;;;;;5044343;28;20383;-82
2023/01/03 06:06:12;;;;;;;5.10;4.70;;;;;;;;;;5036738;28;20385;-83
2023/01/03 06:08:38;;;;;;;5.33;4.90;;;;;;;;;;5040849;28;20416;-82
2023/01/03 06:11:11;;;;;;;4.78;4.32;;;;;;;;;;5019213;28;20388;-82
2023/01/03 06:13:38;;;;;;;5.00;4.60;;;;;;;;;;5037073;28;20387;-82
2023/01/03 06:18:53;;;;;;;5.00;4.60;;;;;;;;;;5034175;28;20366;-83
2023/01/03 06:21:19;;;;;;;5.43;5.03;;;;;;;;;;5033881;28;20398;-83
2023/01/03 06:23:46;;;;;;;4.97;4.57;;;;;;;;;;5015573;28;20446;-83
2023/01/03 06:26:13;;;;;;;4.50;4.10;;;;;;;;;;5033472;28;20394;-83
2023/01/03 06:28:39;;;;;;;4.72;4.35;;;;;;;;;;5036460;28;20403;-83
2023/01/03 06:31:05;;;;;;;4.88;4.35;;;;;;;;;;5015975;28;20457;-84
2023/01/03 06:33:31;;;;;;;4.27;3.90;;;;;;;;;;5040817;28;20425;-83
2023/01/03 06:36:01;;;;;;;4.40;4.00;;;;;;;;;;5034779;28;20383;-83
2023/01/03 06:38:27;;;;;;;3.90;3.60;;;;;;;;;;5034284;28;20414;-83
2023/01/03 06:40:53;;;;;;;4.88;4.47;;;;;;;;;;5039278;28;20411;-83
2023/01/03 06:43:19;;;;;;;4.67;4.27;;;;;;;;;;5052885;28;20439;-83
2023/01/03 06:54:02;;;;;;;5.38;4.97;;;;;;;;;;5052925;28;20392;-83
2023/01/03 06:56:28;;;;;;;5.30;4.90;;;;;;;;;;5049278;28;20851;-83
2023/01/03 06:58:54;;;;;;;5.45;4.95;;;;;;;;;;5040490;28;20394;-84
2023/01/03 07:01:21;;;;;;;4.88;4.47;;;;;;;;;;5051319;28;20949;-84
2023/01/03 07:03:47;;;;;;;5.57;5.07;;;;;;;;;;5052506;28;20431;-85
2023/01/03 07:06:13;;;;;;;5.45;5.05;;;;;;;;;;5049316;28;20436;-87
2023/01/03 07:08:39;;;;;;;4.90;4.50;;;;;;;;;;5052397;28;20937;-84
2023/01/03 07:11:05;;;;;;;5.00;4.50;;;;;;;;;;5052378;28;20374;-84
2023/01/03 07:16:16;;;;;;;5.80;4.88;;;;;;;;;;5052300;28;20778;-85
2023/01/03 07:18:42;;;;;;;5.47;4.87;;;;;;;;;;5052136;28;20400;-85
2023/01/03 07:21:08;;;;;;;5.25;4.85;;;;;;;;;;5029016;28;20402;-85
2023/01/03 07:23:35;;;;;;;5.10;4.60;;;;;;;;;;5033296;28;20462;-86
2023/01/03 07:26:01;;;;;;;5.22;4.78;;;;;;;;;;5048574;28;20385;-83
2023/01/03 07:28:27;;;;;;;5.32;4.90;;;;;;;;;;5045799;28;20418;-84
2023/01/03 07:30:59;;;;;;;5.72;5.32;;;;;;;;;;5039978;28;20434;-83
2023/01/03 07:33:25;;;;;;;5.60;5.10;;;;;;;;;;5030386;28;20852;-84
2023/01/03 07:35:51;;;;;;;5.70;5.20;;;;;;;;;;5041225;28;20943;-85
2023/01/03 07:38:17;;;;;;;5.32;4.93;;;;;;;;;;5050636;28;20413;-85
2023/01/03 07:40:43;;;;;;;6.13;5.70;;;;;;;;;;5033841;28;20763;-85
2023/01/03 07:45:55;;;;;;;5.53;5.03;;;;;;;;;;5050795;28;20382;-85
2023/01/03 07:48:21;;;;;;;5.50;5.10;;;;;;;;;;5033019;28;20409;-86
2023/01/03 07:50:47;;;;;;;5.80;5.30;;;;;;;;;;5031914;28;20449;-85
2023/01/03 07:53:15;;;;;;;5.80;5.40;;;;;;;;;;5051750;28;20427;-86
2023/01/03 07:55:42;;;;;;;5.60;5.20;;;;;;;;;;5040111;28;20386;-84
2023/01/03 07:58:08;;;;;;;6.43;5.80;;;;;;;;;;5051579;28;20859;-84
2023/01/03 08:00:34;;;;;;;5.38;4.88;;;;;;;;;;5051406;28;20416;-84
2023/01/03 08:03:00;;;;;;;5.47;5.03;;;;;;;;;;5051487;28;20389;-84
2023/01/03 08:05:26;;;;;;;6.07;5.57;;;;;;;;;;5051608;28;20527;-84
2023/01/03 08:07:52;;;;;;;6.07;5.50;;;;;;;;;;5051449;28;20763;-84
2023/01/03 08:13:16;;;;;;;5.93;5.43;;;;;;;;;;5051398;28;20732;-86
2023/01/03 08:15:49;;;;;;;5.70;5.20;;;;;;;;;;5051486;28;20847;-85
2023/01/03 08:18:16;;;;;;;5.60;5.20;;;;;;;;;;5051357;28;20468;-85
2023/01/03 08:20:42;;;;;;;5.70;5.20;;;;;;;;;;5041540;28;20401;-85
2023/01/03 08:23:09;;;;;;;5.68;5.18;;;;;;;;;;5051280;28;20430;-87
2023/01/03 08:25:35;;;;;;;5.18;4.78;;;;;;;;;;5033582;28;20895;-85
2023/01/03 08:28:01;;;;;;;5.32;4.82;;;;;;;;;;5051309;28;20413;-85
2023/01/03 08:30:28;;;;;;;5.00;4.60;;;;;;;;;;5051269;28;20385;-84
2023/01/03 08:32:54;;;;;;;5.47;5.05;;;;;;;;;;5030216;28;20379;-85
2023/01/03 08:35:21;;;;;;;5.30;4.80;;;;;;;;;;5046214;28;20381;-86
2023/01/03 08:37:48;;;;;;;4.80;4.40;;;;;;;;;;5042931;28;20467;-84
2023/01/03 08:40:15;;;;;;;5.40;4.90;;;;;;;;;;5044804;28;20382;-83
2023/01/03 08:42:42;;;;;;;4.72;4.32;;;;;;;;;;5048025;28;20465;-85
2023/01/03 08:45:10;;;;;;;3.35;3.10;;;;;;;;;;5042057;28;20393;-83
2023/01/03 08:47:37;;;;;;;3.65;3.28;;;;;;;;;;5053232;28;20408;-83
2023/01/03 08:50:03;;;;;;;4.90;3.55;;;;;;;;;;5045779;28;20482;-86
2023/01/03 08:52:29;;;;;;;3.22;2.92;;;;;;;;;;5051066;28;20389;-84
2023/01/03 08:54:55;;;;;;;2.80;2.60;;;;;;;;;;5045534;28;20939;-85
2023/01/03 08:57:21;;;;;;;6.07;3.27;;;;;;;;;;5054664;28;20473;-85
2023/01/03 08:59:47;;;;;;;6.60;4.60;;;;;;;;;;5054705;28;20459;-84
2023/01/03 09:02:13;;;;;;;3.25;2.70;;;;;;;;;;5044980;28;20422;-84
2023/01/03 09:04:39;;;;;;;4.00;2.70;;;;;;;;;;5044131;28;20876;-84
2023/01/03 09:07:05;;;;;;;2.75;2.15;;;;;;;;;;5037013;28;20742;-83
2023/01/03 09:09:31;;;;;;;2.70;2.30;;;;;;;;;;5037652;28;20395;-84
2023/01/03 09:11:57;;;;;;;2.92;2.38;;;;;;;;;;5043173;28;20393;-87
2023/01/03 09:14:23;;;;;;;3.13;2.40;;;;;;;;;;5054599;28;20381;-84
2023/01/03 09:16:49;;;;;;;3.83;3.00;;;;;;;;;;5049612;28;20411;-85
2023/01/03 09:19:15;;;;;;;3.20;2.90;;;;;;;;;;5038697;28;20413;-87
2023/01/03 09:21:41;;;;;;;3.67;3.22;;;;;;;;;;5052853;28;20377;-85
2023/01/03 09:24:07;;;;;;;4.53;3.70;;;;;;;;;;5054479;28;20809;-85
2023/01/03 09:26:33;;;;;;;3.90;3.45;;;;;;;;;;5054146;28;20476;-85
2023/01/03 09:28:59;;;;;;;5.20;4.68;;;;;;;;;;5039624;28;20516;-86
2023/01/03 09:31:25;;;;;;;8.10;6.97;;;;;;;;;;5047159;28;21008;-85
2023/01/03 09:33:51;;;;;;;6.20;5.63;;;;;;;;;;5050739;28;20377;-85
2023/01/03 09:36:17;;;;;;;6.13;5.53;;;;;;;;;;5054250;28;20772;-85
2023/01/03 09:38:43;;;;;;;10.65;7.93;;;;;;;;;;5036045;28;20500;-85
2023/01/03 09:41:17;;;;;;;9.68;8.07;;;;;;;;;;5050017;28;20385;-84
2023/01/03 09:43:45;;;;;;;9.13;8.23;;;;;;;;;;5030131;28;20412;-85
2023/01/03 09:46:19;;;;;;;7.05;6.40;;;;;;;;;;5036152;28;20435;-86
2023/01/03 09:48:45;;;;;;;6.40;5.80;;;;;;;;;;5052996;28;20451;-84
2023/01/03 10:05:40;;;;;;;6.00;4.50;;;;;;;;;;5045585;28;20392;-85
2023/01/03 10:08:12;;;;;;;4.53;4.13;;;;;;;;;;5051710;28;20401;-85
2023/01/03 10:10:43;;;;;;;4.93;4.40;;;;;;;;;;5053487;28;20396;-85
2023/01/03 10:13:26;;;;;;;4.60;4.20;;;;;;;;;;5053318;28;20385;-84
2023/01/03 10:15:55;;;;;;;4.07;3.60;;;;;;;;;;5053524;28;20863;-85
2023/01/03 10:18:27;;;;;;;3.80;3.50;;;;;;;;;;5053250;28;20734;-85
2023/01/03 10:21:07;;;;;;;4.93;3.90;;;;;;;;;;5053304;28;20903;-86
2023/01/03 10:23:34;;;;;;;5.35;3.80;;;;;;;;;;5053169;28;20417;-85
2023/01/03 10:26:00;;;;;;;3.58;3.20;;;;;;;;;;5053219;28;20388;-85
2023/01/03 10:28:30;;;;;;;3.50;3.13;;;;;;;;;;5017716;28;20411;-83
2023/01/03 10:30:59;;;;;;;2.85;2.65;;;;;;;;;;5053350;28;20385;-86
2023/01/03 10:33:25;;;;;;;3.60;2.75;;;;;;;;;;5053170;28;20381;-84
2023/01/03 10:35:51;;;;;;;5.10;2.90;;;;;;;;;;5035163;28;20890;-86
2023/01/03 10:38:17;;;;;;;2.85;2.50;;;;;;;;;;5053085;28;20385;-85
2023/01/03 10:40:50;;;;;;;2.67;2.40;;;;;;;;;;5050953;28;20385;-84
2023/01/03 10:43:26;;;;;;;4.03;2.78;;;;;;;;;;5053012;28;20412;-85
2023/01/03 10:45:54;;;;;;;3.15;2.90;;;;;;;;;;5052962;28;20378;-86
2023/01/03 10:48:20;;;;;;;3.50;3.20;;;;;;;;;;5052568;28;20918;-85
2023/01/03 10:50:46;;;;;;;4.10;3.40;;;;;;;;;;5050203;28;20377;-86
2023/01/03 10:53:13;;;;;;;4.40;4.00;;;;;;;;;;5052751;28;20431;-87
2023/01/03 10:55:47;;;;;;;4.22;3.25;;;;;;;;;;5052705;28;20401;-85
2023/01/03 10:58:26;;;;;;;2.90;2.60;;;;;;;;;;5052690;28;20465;-85
2023/01/03 11:00:53;;;;;;;4.18;3.65;;;;;;;;;;5052238;28;20405;-87
2023/01/03 11:03:25;;;;;;;3.20;2.90;;;;;;;;;;5052589;28;20952;-87
2023/01/03 11:05:57;;;;;;;3.28;2.35;;;;;;;;;;5052334;28;20388;-87
2023/01/03 11:08:34;;;;;;;4.65;3.83;;;;;;;;;;5059230;28;20405;-86
2023/01/03 11:11:00;;;;;;;3.45;2.70;;;;;;;;;;5050148;28;20848;-87
2023/01/03 11:13:28;;;;;;;2.38;2.10;;;;;;;;;;5034620;28;20439;-87
2023/01/03 11:15:55;;;;;;;2.20;2.00;;;;;;;;;;5052442;28;20389;-85
2023/01/03 11:18:22;;;;;;;2.45;2.25;;;;;;;;;;5052185;28;20858;-86
2023/01/03 11:20:51;;;;;;;3.17;2.00;;;;;;;;;;5043312;28;20398;-85
2023/01/03 11:23:24;;;;;;;2.08;1.88;;;;;;;;;;5053872;28;20477;-84
2023/01/03 11:25:56;;;;;;;2.17;1.92;;;;;;;;;;5052195;28;20384;-85
2023/01/03 11:28:32;;;;;;;3.85;2.50;;;;;;;;;;5052033;28;20401;-86
2023/01/03 11:31:08;;;;;;;2.85;2.60;;;;;;;;;;5051760;28;20373;-87
2023/01/03 11:33:34;;;;;;;3.03;2.60;;;;;;;;;;5033357;28;20901;-85
2023/01/03 11:36:21;;;;;;;2.53;2.33;;;;;;;;;;5038398;28;20373;-85
2023/01/03 11:38:53;;;;;;;3.13;2.58;;;;;;;;;;5051906;28;20365;-85
2023/01/03 11:41:19;;;;;;;3.72;2.65;;;;;;;;;;5045260;28;20377;-84
2023/01/03 11:43:52;;;;;;;3.50;2.63;;;;;;;;;;5030453;28;20875;-84
2023/01/03 11:46:18;;;;;;;3.17;2.88;;;;;;;;;;5051942;28;20466;-86
2023/01/03 11:48:46;;;;;;;2.38;2.13;;;;;;;;;;5043103;28;20896;-85
2023/01/03 11:51:19;;;;;;;2.20;1.80;;;;;;;;;;5051229;28;20400;-85
2023/01/03 11:53:55;;;;;;;2.15;1.80;;;;;;;;;;5051829;28;20381;-84
2023/01/03 11:56:27;;;;;;;2.40;2.20;;;;;;;;;;5051626;28;20419;-85
2023/01/03 11:58:56;;;;;;;5.20;2.40;;;;;;;;;;5049709;28;20747;-84
2023/01/03 12:01:28;;;;;;;3.25;2.70;;;;;;;;;;5051469;28;20413;-86
2023/01/03 12:03:57;;;;;;;3.55;3.20;;;;;;;;;;5043667;28;20378;-85
2023/01/03 12:06:36;;;;;;;2.45;2.25;;;;;;;;;;5051467;28;20882;-85
2023/01/03 12:09:18;;;;;;;2.97;2.67;;;;;;;;;;5033532;28;20448;-84
2023/01/03 12:11:47;;;;;;;3.45;3.22;;;;;;;;;;5051422;28;20370;-85
2023/01/03 12:14:16;;;;;;;3.75;3.45;;;;;;;;;;5051452;28;20373;-86
2023/01/03 12:16:50;;;;;;;3.83;3.03;;;;;;;;;;5051434;28;20416;-85
2023/01/03 12:19:16;;;;;;;3.50;3.20;;;;;;;;;;5051403;28;20370;-85
2023/01/03 12:21:44;;;;;;;2.17;1.70;;;;;;;;;;5052320;28;20385;-85
2023/01/03 12:24:16;;;;;;;1.88;1.00;;;;;;;;;;5055645;28;20381;-86
2023/01/03 12:26:44;;;;;;;2.20;0.90;;;;;;;;;;5055063;28;20393;-84
2023/01/03 12:29:16;;;;;;;1.40;1.27;;;;;;;;;;5055366;28;20454;-84
2023/01/03 12:31:48;;;;;;;2.15;1.90;;;;;;;;;;5055505;28;21012;-84
2023/01/03 12:34:21;;;;;;;2.45;2.22;;;;;;;;;;5055415;28;20405;-84
2023/01/03 12:36:55;;;;;;;1.83;1.73;;;;;;;;;;5055496;28;20739;-83
2023/01/03 12:39:56;;;;;;;2.50;1.98;;;;;;;;;;5055251;28;20373;-84
2023/01/03 12:42:25;;;;;;;3.47;1.90;;;;;;;;;;4954986;29;20449;-84
2023/01/03 12:45:13;;;;;;;2.60;2.20;;;;;;;;;;5029992;28;20381;-84
2023/01/03 12:47:41;;;;;;;2.80;2.08;;;;;;;;;;5054479;28;20409;-83
2023/01/03 12:50:26;;;;;;;2.22;2.03;;;;;;;;;;5055045;28;20595;-85
2023/01/03 12:52:56;;;;;;;2.42;2.00;;;;;;;;;;5037063;28;20732;-85
2023/01/03 12:55:44;;;;;;;4.50;4.10;;;;;;;;;;5055068;28;20389;-84
2023/01/03 12:58:37;;;;;;;4.80;4.30;;;;;;;;;;5036872;28;20778;-85
2023/01/03 13:01:09;;;;;;;5.30;4.80;;;;;;;;;;5050016;28;20427;-86
2023/01/03 13:03:41;;;;;;;4.55;4.25;;;;;;;;;;5054881;28;20874;-85
2023/01/03 13:06:12;;;;;;;4.32;3.85;;;;;;;;;;5054698;28;20383;-84
2023/01/03 13:08:47;;;;;;;4.87;4.47;;;;;;;;;;5054655;28;20405;-85
2023/01/03 13:11:16;;;;;;;4.65;4.20;;;;;;;;;;5054569;28;20434;-85
2023/01/03 13:14:08;;;;;;;4.97;4.57;;;;;;;;;;5054529;28;20369;-85
2023/01/03 13:16:34;;;;;;;4.38;3.92;;;;;;;;;;5008716;28;20400;-86
2023/01/03 13:19:19;;;;;;;4.22;3.83;;;;;;;;;;5052698;28;20927;-86
2023/01/03 13:21:54;;;;;;;4.75;4.25;;;;;;;;;;5047636;28;20369;-86
2023/01/03 13:24:40;;;;;;;4.70;4.30;;;;;;;;;;5054503;28;20377;-85
2023/01/03 13:27:24;;;;;;;5.10;4.70;;;;;;;;;;5054308;28;20401;-85
2023/01/03 13:29:50;;;;;;;4.22;3.92;;;;;;;;;;5054232;28;20377;-85
2023/01/03 13:32:19;;;;;;;5.47;4.60;;;;;;;;;;5053840;28;20385;-85
2023/01/03 13:35:05;;;;;;;4.88;4.53;;;;;;;;;;5034502;28;20407;-85
2023/01/03 13:37:31;;;;;;;4.30;4.00;;;;;;;;;;5032527;28;20933;-86
2023/01/03 13:40:00;;;;;;;4.93;4.53;;;;;;;;;;5054024;28;20417;-85
2023/01/03 13:42:30;;;;;;;5.03;4.63;;;;;;;;;;5053995;28;20427;-85
2023/01/03 13:45:14;;;;;;;5.10;4.70;;;;;;;;;;5054049;28;20887;-87
2023/01/03 13:47:41;;;;;;;4.85;4.45;;;;;;;;;;5053807;28;20444;-85
2023/01/03 13:50:24;;;;;;;4.97;4.57;;;;;;;;;;5051240;28;20378;-85
2023/01/03 13:53:06;;;;;;;4.97;4.55;;;;;;;;;;5053818;28;20397;-83
2023/01/03 13:55:33;;;;;;;5.57;5.10;;;;;;;;;;5053805;28;20385;-84
2023/01/03 13:57:59;;;;;;;5.03;4.63;;;;;;;;;;5053752;28;20738;-84
2023/01/03 14:00:25;;;;;;;5.43;4.93;;;;;;;;;;5046750;28;20395;-84
2023/01/03 14:03:08;;;;;;;6.25;5.50;;;;;;;;;;5051093;28;20384;-84
2023/01/03 14:05:40;;;;;;;5.43;5.03;;;;;;;;;;5053695;28;20378;-84
2023/01/03 14:08:19;;;;;;;5.40;4.90;;;;;;;;;;5053374;28;20405;-86
2023/01/03 14:11:03;;;;;;;4.90;4.50;;;;;;;;;;5053468;28;20384;-86
2023/01/03 14:13:32;;;;;;;3.97;3.67;;;;;;;;;;5052800;28;20390;-85
2023/01/03 14:16:04;;;;;;;4.40;4.00;;;;;;;;;;5052961;28;20382;-86
2023/01/03 14:18:31;;;;;;;3.90;3.60;;;;;;;;;;5053473;28;20385;-85
2023/01/03 14:20:57;;;;;;;3.58;3.28;;;;;;;;;;5036035;28;20382;-86
2023/01/03 14:23:25;;;;;;;3.70;3.40;;;;;;;;;;5053417;28;20377;-86
2023/01/03 14:25:52;;;;;;;3.83;3.53;;;;;;;;;;5034948;28;20871;-86
2023/01/03 14:28:18;;;;;;;3.78;3.47;;;;;;;;;;5035205;28;20486;-85
2023/01/03 14:30:44;;;;;;;3.97;3.38;;;;;;;;;;5053132;28;20850;-86
2023/01/03 14:33:21;;;;;;;3.65;3.35;;;;;;;;;;5053261;28;20423;-86
2023/01/03 14:35:47;;;;;;;3.85;3.55;;;;;;;;;;5053154;28;20442;-86
2023/01/03 14:38:28;;;;;;;4.47;4.07;;;;;;;;;;5052997;28;20377;-86
2023/01/03 14:40:57;;;;;;;4.33;4.03;;;;;;;;;;5052940;28;20381;-86
2023/01/03 14:43:30;;;;;;;5.20;4.80;;;;;;;;;;5052969;28;20430;-86
2023/01/03 14:45:57;;;;;;;5.37;4.97;;;;;;;;;;5052095;28;20405;-85
2023/01/03 14:48:24;;;;;;;5.22;4.72;;;;;;;;;;5052873;28;20412;-85
2023/01/03 14:50:50;;;;;;;4.40;4.00;;;;;;;;;;5052685;28;20385;-86
2023/01/03 14:53:16;;;;;;;5.20;4.70;;;;;;;;;;5052807;28;20384;-86
2023/01/03 14:55:48;;;;;;;5.32;4.82;;;;;;;;;;5052704;28;20381;-85
2023/01/03 14:58:37;;;;;;;5.85;5.45;;;;;;;;;;5052772;28;20390;-86
2023/01/03 15:01:05;;;;;;;6.78;6.28;;;;;;;;;;5034427;28;21056;-86
2023/01/03 15:03:35;;;;;;;6.32;5.88;;;;;;;;;;5052563;28;20417;-86
2023/01/03 15:06:01;;;;;;;7.72;7.13;;;;;;;;;;5052472;28;20382;-86
2023/01/03 15:08:31;;;;;;;7.15;6.63;;;;;;;;;;5052417;28;20397;-86
2023/01/03 15:11:05;;;;;;;7.30;6.70;;;;;;;;;;5052357;28;20890;-86
2023/01/03 15:13:31;;;;;;;7.22;6.65;;;;;;;;;;5052304;28;20380;-86
2023/01/03 15:15:59;;;;;;;7.50;7.00;;;;;;;;;;5052339;28;20394;-86
2023/01/03 15:18:28;;;;;;;7.27;6.73;;;;;;;;;;5034332;28;20867;-87
2023/01/03 15:20:55;;;;;;;7.38;6.88;;;;;;;;;;5052255;28;20385;-86
2023/01/03 15:23:36;;;;;;;7.60;7.00;;;;;;;;;;5044272;28;20374;-86
2023/01/03 15:26:03;;;;;;;6.82;6.32;;;;;;;;;;5052123;28;20523;-86
2023/01/03 15:28:30;;;;;;;6.30;5.88;;;;;;;;;;5041593;28;20407;-86
2023/01/03 15:31:11;;;;;;;6.50;6.00;;;;;;;;;;5052047;28;20457;-86
2023/01/03 15:33:37;;;;;;;6.60;6.00;;;;;;;;;;5052043;28;20369;-85
2023/01/03 15:36:11;;;;;;;7.53;6.93;;;;;;;;;;5051787;28;20901;-86
2023/01/03 15:38:38;;;;;;;7.23;6.63;;;;;;;;;;5051520;28;20429;-86
2023/01/03 15:43:18;;;;;;;6.68;6.18;;;;;;;;;;5051859;28;20443;-86
2023/01/03 15:44:08;;;;;;;10.10;9.20;;;;;;;;;;5048285;28;20400;-86
2023/01/03 15:46:34;;;;;;;9.13;8.43;;;;;;;;;;5051423;28;20390;-85
2023/01/03 15:49:01;;;;;;;8.02;7.32;;;;;;;;;;5051512;28;20397;-85
2023/01/03 15:51:27;;;;;;;8.82;8.13;;;;;;;;;;5051739;28;20856;-86
2023/01/03 15:53:53;;;;;;;7.70;7.10;;;;;;;;;;5051712;28;20746;-86
2023/01/03 15:56:21;;;;;;;7.73;7.13;;;;;;;;;;5046137;28;20381;-85